Time;durP1;ratioP1;P1;durP2;ratioP2;P2;SDS_P1;SDS_P2;PMS_P1;PMS_P2;Temp;Humidity;BMP_temperature;BMP_pressure;BME280_temperature;BME280_humidity;BME280_pressure;Samples;Min_cycle;Max_cycle;Signal;HPM_P1;HPM_P2
2022/09/24 00:04:12;;;;;;;2.88;1.63;;;;;;;;;;10348576;28;20718;-58
2022/09/24 00:09:17;;;;;;;2.45;1.25;;;;;;;;;;10347137;28;20082;-60
2022/09/24 00:14:20;;;;;;;6.85;1.23;;;;;;;;;;10348530;28;20034;-59
2022/09/24 00:19:22;;;;;;;5.05;1.92;;;;;;;;;;10342667;28;20105;-61
2022/09/24 00:29:44;;;;;;;3.53;1.50;;;;;;;;;;10345958;28;20079;-60
2022/09/24 00:34:47;;;;;;;2.85;1.60;;;;;;;;;;10344521;28;20119;-59
2022/09/24 00:39:49;;;;;;;3.00;1.73;;;;;;;;;;10322490;28;20098;-59
2022/09/24 00:44:53;;;;;;;5.15;1.48;;;;;;;;;;10330974;28;20133;-59
2022/09/24 00:50:00;;;;;;;5.07;1.75;;;;;;;;;;10343768;28;20058;-59
2022/09/24 00:55:02;;;;;;;5.43;1.40;;;;;;;;;;10336587;28;20045;-60
2022/09/24 01:00:06;;;;;;;3.55;1.80;;;;;;;;;;10349235;28;20496;-60
2022/09/24 01:05:09;;;;;;;3.22;1.42;;;;;;;;;;10339493;28;20046;-66
2022/09/24 01:10:11;;;;;;;5.22;2.40;;;;;;;;;;10342652;28;20046;-65
2022/09/24 01:15:18;;;;;;;4.03;3.05;;;;;;;;;;10343115;28;20400;-65
2022/09/24 01:20:26;;;;;;;3.95;2.17;;;;;;;;;;10343481;28;20129;-66
2022/09/24 01:25:28;;;;;;;3.75;1.80;;;;;;;;;;10347712;28;20399;-65
2022/09/24 01:30:32;;;;;;;4.85;1.85;;;;;;;;;;10346756;28;20143;-64
2022/09/24 01:35:36;;;;;;;3.03;1.88;;;;;;;;;;10342890;28;20058;-63
2022/09/24 01:40:38;;;;;;;2.88;1.75;;;;;;;;;;10336941;28;20779;-62
2022/09/24 01:45:41;;;;;;;5.88;3.03;;;;;;;;;;10344140;28;20053;-65
2022/09/24 01:50:46;;;;;;;4.43;2.28;;;;;;;;;;10344284;28;20133;-65
2022/09/24 01:55:49;;;;;;;3.63;2.65;;;;;;;;;;10339574;28;20137;-64
2022/09/24 02:00:54;;;;;;;7.93;3.10;;;;;;;;;;10338416;28;20132;-65
2022/09/24 02:06:00;;;;;;;6.03;3.17;;;;;;;;;;10329725;28;20051;-66
2022/09/24 02:11:04;;;;;;;5.18;2.85;;;;;;;;;;10341862;28;20400;-65
2022/09/24 02:16:08;;;;;;;4.10;2.40;;;;;;;;;;10338664;28;20089;-64
2022/09/24 02:21:12;;;;;;;3.88;3.05;;;;;;;;;;10343948;28;20046;-64
2022/09/24 02:26:15;;;;;;;8.20;4.55;;;;;;;;;;10341928;28;20069;-64
2022/09/24 02:31:26;;;;;;;5.93;2.78;;;;;;;;;;10342873;28;20050;-64
2022/09/24 02:36:28;;;;;;;3.80;2.00;;;;;;;;;;10341934;28;20046;-66
2022/09/24 02:41:31;;;;;;;5.97;2.47;;;;;;;;;;10338563;28;20133;-65
2022/09/24 02:46:33;;;;;;;7.38;2.40;;;;;;;;;;10338443;28;20855;-63
2022/09/24 02:51:35;;;;;;;10.95;3.40;;;;;;;;;;10342051;28;20048;-60
2022/09/24 02:56:38;;;;;;;5.05;3.00;;;;;;;;;;10340400;28;20046;-61
2022/09/24 03:01:40;;;;;;;5.88;2.70;;;;;;;;;;10338455;28;20065;-59
2022/09/24 03:06:43;;;;;;;7.40;3.38;;;;;;;;;;10333170;28;20124;-60
2022/09/24 03:11:46;;;;;;;5.68;3.15;;;;;;;;;;10341102;28;20141;-59
2022/09/24 03:16:50;;;;;;;6.10;2.83;;;;;;;;;;10337143;28;20556;-59
2022/09/24 03:21:52;;;;;;;6.15;2.72;;;;;;;;;;10348690;28;20518;-61
2022/09/24 03:26:54;;;;;;;4.53;3.03;;;;;;;;;;10327661;28;20057;-60
2022/09/24 03:31:56;;;;;;;6.88;3.17;;;;;;;;;;10345264;28;20089;-60
2022/09/24 03:36:58;;;;;;;4.90;2.55;;;;;;;;;;10342919;28;20042;-60
2022/09/24 03:42:01;;;;;;;5.32;1.95;;;;;;;;;;10346457;28;20471;-60
2022/09/24 03:47:03;;;;;;;2.50;1.77;;;;;;;;;;10343251;28;20061;-59
2022/09/24 03:52:05;;;;;;;2.50;1.95;;;;;;;;;;10345752;28;20133;-59
2022/09/24 03:57:07;;;;;;;5.68;2.55;;;;;;;;;;10345362;28;20572;-60
2022/09/24 04:02:09;;;;;;;4.57;3.03;;;;;;;;;;10348795;28;20085;-60
2022/09/24 04:07:12;;;;;;;4.65;3.05;;;;;;;;;;10349092;28;20094;-61
2022/09/24 04:12:14;;;;;;;4.82;3.50;;;;;;;;;;10349324;28;20844;-61
2022/09/24 04:17:16;;;;;;;6.97;3.55;;;;;;;;;;10342063;28;20556;-60
2022/09/24 04:22:18;;;;;;;4.90;2.45;;;;;;;;;;10339389;28;20128;-59
2022/09/24 04:27:20;;;;;;;4.90;2.67;;;;;;;;;;10345011;28;20148;-60
2022/09/24 04:32:22;;;;;;;6.60;3.25;;;;;;;;;;10346338;28;20130;-61
2022/09/24 04:37:24;;;;;;;4.80;3.13;;;;;;;;;;10340678;28;20115;-60
2022/09/24 04:42:26;;;;;;;4.20;2.30;;;;;;;;;;10339671;28;20050;-61
2022/09/24 04:47:28;;;;;;;6.00;2.63;;;;;;;;;;10342369;28;20074;-63
2022/09/24 04:52:32;;;;;;;4.07;2.88;;;;;;;;;;10341043;28;20058;-62
2022/09/24 04:57:35;;;;;;;3.65;2.22;;;;;;;;;;10341779;28;20049;-64
2022/09/24 05:02:37;;;;;;;8.00;2.15;;;;;;;;;;10344743;28;20033;-62
2022/09/24 05:07:43;;;;;;;4.10;2.30;;;;;;;;;;10345221;28;20515;-62
2022/09/24 05:12:45;;;;;;;5.68;2.20;;;;;;;;;;10342853;28;20062;-66
2022/09/24 05:17:47;;;;;;;7.40;2.30;;;;;;;;;;10352633;28;20560;-70
2022/09/24 05:22:50;;;;;;;4.90;2.60;;;;;;;;;;10354345;28;20096;-69
2022/09/24 05:27:53;;;;;;;5.03;2.08;;;;;;;;;;10350034;28;20062;-70
2022/09/24 05:32:55;;;;;;;3.72;2.05;;;;;;;;;;10349439;28;20136;-71
2022/09/24 05:37:58;;;;;;;4.13;2.40;;;;;;;;;;10352315;28;20200;-70
2022/09/24 05:43:00;;;;;;;5.88;2.65;;;;;;;;;;10347777;28;20461;-69
2022/09/24 05:48:03;;;;;;;4.50;2.90;;;;;;;;;;10352067;28;20048;-70
2022/09/24 05:53:05;;;;;;;5.15;2.97;;;;;;;;;;10356173;28;20053;-70
2022/09/24 05:58:09;;;;;;;7.75;3.13;;;;;;;;;;10347258;28;20460;-69
2022/09/24 06:03:15;;;;;;;5.28;3.08;;;;;;;;;;10354544;28;20397;-68
2022/09/24 06:08:19;;;;;;;3.55;2.85;;;;;;;;;;10342029;28;20053;-70
2022/09/24 06:13:21;;;;;;;7.38;3.28;;;;;;;;;;10349367;28;20062;-70
2022/09/24 06:18:23;;;;;;;11.00;3.75;;;;;;;;;;10353143;28;20077;-70
2022/09/24 06:23:25;;;;;;;5.28;3.28;;;;;;;;;;10352673;28;20074;-70
2022/09/24 06:28:27;;;;;;;4.45;3.17;;;;;;;;;;10346430;28;20085;-69
2022/09/24 06:33:30;;;;;;;6.47;3.35;;;;;;;;;;10350134;28;20108;-72
2022/09/24 06:38:32;;;;;;;9.45;3.38;;;;;;;;;;10348427;28;20053;-68
2022/09/24 06:43:34;;;;;;;6.40;3.25;;;;;;;;;;10351150;28;20089;-69
2022/09/24 06:48:37;;;;;;;6.95;2.75;;;;;;;;;;10351120;28;20049;-70
2022/09/24 06:53:39;;;;;;;4.22;3.05;;;;;;;;;;10349542;28;20089;-70
2022/09/24 06:58:41;;;;;;;4.95;2.95;;;;;;;;;;10347506;28;20073;-69
2022/09/24 07:03:43;;;;;;;6.50;3.22;;;;;;;;;;10351600;28;20081;-69
2022/09/24 07:08:49;;;;;;;5.43;3.28;;;;;;;;;;10352086;28;20081;-70
2022/09/24 07:13:51;;;;;;;6.40;3.63;;;;;;;;;;10341872;28;20141;-70
2022/09/24 07:18:53;;;;;;;6.28;3.40;;;;;;;;;;10327384;28;20259;-70
2022/09/24 07:23:55;;;;;;;7.90;3.53;;;;;;;;;;10349374;28;20137;-70
2022/09/24 07:29:01;;;;;;;8.07;3.47;;;;;;;;;;10348817;28;20057;-71
2022/09/24 07:34:05;;;;;;;6.32;3.42;;;;;;;;;;10344008;28;20045;-70
2022/09/24 07:39:08;;;;;;;7.75;4.38;;;;;;;;;;10346811;28;20073;-70
2022/09/24 07:44:10;;;;;;;8.43;3.72;;;;;;;;;;10343300;28;20101;-70
2022/09/24 07:49:12;;;;;;;7.75;4.25;;;;;;;;;;10345011;28;20054;-69
2022/09/24 07:54:15;;;;;;;10.18;4.15;;;;;;;;;;10344417;28;20116;-70
2022/09/24 07:59:19;;;;;;;9.00;4.60;;;;;;;;;;10341102;28;20050;-70
2022/09/24 08:04:21;;;;;;;5.90;4.10;;;;;;;;;;10347340;28;20089;-69
2022/09/24 08:09:23;;;;;;;5.63;3.63;;;;;;;;;;10357942;28;20058;-70
2022/09/24 08:14:25;;;;;;;8.63;3.78;;;;;;;;;;10349069;28;20050;-70
2022/09/24 08:19:29;;;;;;;9.75;4.55;;;;;;;;;;10354993;28;20042;-68
2022/09/24 08:24:32;;;;;;;7.65;3.55;;;;;;;;;;10353615;28;20049;-70
2022/09/24 08:29:34;;;;;;;6.60;3.42;;;;;;;;;;10354003;28;20045;-69
2022/09/24 08:34:39;;;;;;;6.63;3.53;;;;;;;;;;10349854;28;20505;-69
2022/09/24 08:39:41;;;;;;;7.50;4.40;;;;;;;;;;10348336;28;20439;-71
2022/09/24 08:50:15;;;;;;;6.07;3.30;;;;;;;;;;10352675;28;20089;-70
2022/09/24 08:55:40;;;;;;;5.75;3.60;;;;;;;;;;10348790;28;20069;-69
2022/09/24 09:00:51;;;;;;;6.53;2.83;;;;;;;;;;10340251;28;20038;-70
2022/09/24 09:05:56;;;;;;;8.50;3.67;;;;;;;;;;10351429;28;20078;-73
2022/09/24 09:11:01;;;;;;;6.82;3.15;;;;;;;;;;10350242;28;20195;-70
2022/09/24 09:16:05;;;;;;;8.23;4.63;;;;;;;;;;10347595;28;20042;-69
2022/09/24 09:21:13;;;;;;;7.57;4.00;;;;;;;;;;10354874;28;20110;-68
2022/09/24 09:26:20;;;;;;;11.38;4.05;;;;;;;;;;10350139;28;20061;-69
2022/09/24 09:31:38;;;;;;;8.57;3.25;;;;;;;;;;10354983;28;20054;-71
2022/09/24 09:36:46;;;;;;;8.80;4.55;;;;;;;;;;10344172;28;20038;-69
2022/09/24 09:41:57;;;;;;;5.53;4.07;;;;;;;;;;10349873;28;20046;-69
2022/09/24 09:47:00;;;;;;;5.85;3.58;;;;;;;;;;10345110;28;20141;-70
2022/09/24 09:52:04;;;;;;;7.03;3.10;;;;;;;;;;10355909;28;20062;-68
2022/09/24 09:57:06;;;;;;;7.57;3.88;;;;;;;;;;10356214;28;20440;-70
2022/09/24 10:02:18;;;;;;;5.28;2.60;;;;;;;;;;10355706;28;20104;-69
2022/09/24 10:07:21;;;;;;;5.55;3.13;;;;;;;;;;10350274;28;20089;-69
2022/09/24 10:12:25;;;;;;;4.60;2.63;;;;;;;;;;10344239;28;20077;-69
2022/09/24 10:17:29;;;;;;;4.50;2.90;;;;;;;;;;10333903;28;20120;-68
2022/09/24 10:22:31;;;;;;;5.32;3.00;;;;;;;;;;10341838;28;20119;-69
2022/09/24 10:27:35;;;;;;;5.90;2.40;;;;;;;;;;10339407;28;20129;-70
2022/09/24 10:32:37;;;;;;;3.95;2.95;;;;;;;;;;10340729;28;20049;-69
2022/09/24 10:37:49;;;;;;;5.20;2.92;;;;;;;;;;10335623;28;20058;-69
2022/09/24 10:42:56;;;;;;;6.43;2.72;;;;;;;;;;10334969;28;20129;-69
2022/09/24 10:47:58;;;;;;;;;;;;;;;;;;10344009;28;20519;-69
2022/09/24 10:53:03;;;;;;;3.85;2.67;;;;;;;;;;10342945;28;19967;-68
2022/09/24 10:58:14;;;;;;;3.45;2.50;;;;;;;;;;10340874;28;20065;-70
2022/09/24 11:03:41;;;;;;;4.90;2.92;;;;;;;;;;10338307;28;20058;-70
2022/09/24 11:08:44;;;;;;;3.75;2.22;;;;;;;;;;10338171;28;20421;-70
2022/09/24 11:13:55;;;;;;;5.82;2.80;;;;;;;;;;10341480;28;20139;-70
2022/09/24 11:19:00;;;;;;;8.10;3.58;;;;;;;;;;10340334;28;20461;-69
2022/09/24 11:24:08;;;;;;;4.40;2.78;;;;;;;;;;10337923;28;20677;-69
2022/09/24 11:29:29;;;;;;;3.72;2.83;;;;;;;;;;10349316;28;20048;-69
2022/09/24 11:34:50;;;;;;;7.35;3.30;;;;;;;;;;10334023;28;20060;-70
2022/09/24 11:39:52;;;;;;;5.20;3.10;;;;;;;;;;10339625;28;20137;-70
2022/09/24 11:44:54;;;;;;;6.68;3.47;;;;;;;;;;10352012;28;20125;-68
2022/09/24 11:50:11;;;;;;;7.65;2.45;;;;;;;;;;10322719;28;20081;-70
2022/09/24 11:55:19;;;;;;;3.78;2.58;;;;;;;;;;10345357;28;20051;-69
2022/09/24 12:00:21;;;;;;;5.15;2.65;;;;;;;;;;10347417;28;20054;-69
2022/09/24 12:05:33;;;;;;;4.75;2.47;;;;;;;;;;10348566;28;20101;-68
2022/09/24 12:10:50;;;;;;;3.70;1.08;;;;;;;;;;10340175;28;20138;-68
2022/09/24 12:15:58;;;;;;;3.17;1.33;;;;;;;;;;10343057;28;23230;-69
2022/09/24 12:21:05;;;;;;;5.88;1.42;;;;;;;;;;10345278;28;20088;-70
2022/09/24 12:26:08;;;;;;;5.65;1.30;;;;;;;;;;10342626;28;20540;-68
2022/09/24 12:36:57;;;;;;;2.90;1.23;;;;;;;;;;10348341;28;20057;-69
2022/09/24 12:42:02;;;;;;;3.78;1.42;;;;;;;;;;10348483;28;20129;-69
2022/09/24 12:47:05;;;;;;;3.33;1.60;;;;;;;;;;10339205;28;20176;-69
2022/09/24 12:52:31;;;;;;;5.50;2.53;;;;;;;;;;10345654;28;20042;-69
2022/09/24 12:57:35;;;;;;;3.05;1.63;;;;;;;;;;10339751;28;20137;-69
2022/09/24 13:02:45;;;;;;;5.63;2.40;;;;;;;;;;10338647;28;20369;-70
2022/09/24 13:07:56;;;;;;;2.35;1.40;;;;;;;;;;10342471;28;20136;-69
2022/09/24 13:12:59;;;;;;;2.60;1.60;;;;;;;;;;10345769;28;20050;-69
2022/09/24 13:18:03;;;;;;;5.45;1.60;;;;;;;;;;10345951;28;20073;-68
2022/09/24 13:23:13;;;;;;;10.48;1.85;;;;;;;;;;10337428;28;20046;-69
2022/09/24 13:28:20;;;;;;;5.40;1.63;;;;;;;;;;10344460;28;20129;-69
2022/09/24 13:33:30;;;;;;;2.42;1.38;;;;;;;;;;10345094;28;20136;-69
2022/09/24 13:38:44;;;;;;;3.17;1.20;;;;;;;;;;10337424;28;20132;-69
2022/09/24 13:44:03;;;;;;;4.00;1.20;;;;;;;;;;10350184;28;20117;-68
2022/09/24 13:49:10;;;;;;;4.20;1.65;;;;;;;;;;10340141;28;20088;-68
2022/09/24 13:54:24;;;;;;;2.58;1.60;;;;;;;;;;10344868;28;20057;-70
2022/09/24 13:59:27;;;;;;;5.25;1.40;;;;;;;;;;10344562;28;20133;-68
2022/09/24 14:04:29;;;;;;;4.32;1.25;;;;;;;;;;10335797;28;20058;-69
2022/09/24 14:09:33;;;;;;;1.50;1.17;;;;;;;;;;10341030;28;20050;-69
2022/09/24 14:14:35;;;;;;;5.00;1.35;;;;;;;;;;10341344;28;20078;-68
2022/09/24 14:19:37;;;;;;;4.68;1.42;;;;;;;;;;10337594;28;20169;-68
2022/09/24 14:24:55;;;;;;;2.63;1.13;;;;;;;;;;10338721;28;20053;-68
2022/09/24 14:30:00;;;;;;;4.07;0.98;;;;;;;;;;10344015;28;20434;-70
2022/09/24 14:35:07;;;;;;;4.03;1.95;;;;;;;;;;10344593;28;20045;-69
2022/09/24 14:40:13;;;;;;;1.90;0.77;;;;;;;;;;10341974;28;20155;-68
2022/09/24 14:45:15;;;;;;;;;;;;;;;;;;10341666;28;20072;-69
2022/09/24 14:50:34;;;;;;;1.85;0.50;;;;;;;;;;10338305;28;20559;-68
2022/09/24 14:55:38;;;;;;;4.25;0.57;;;;;;;;;;10339138;28;20497;-68
2022/09/24 15:00:47;;;;;;;2.47;0.68;;;;;;;;;;10353150;28;20085;-68
2022/09/24 15:05:49;;;;;;;0.80;0.50;;;;;;;;;;10339388;28;20057;-68
2022/09/24 15:10:53;;;;;;;2.70;0.73;;;;;;;;;;10341829;28;20065;-68
2022/09/24 15:16:04;;;;;;;1.08;0.40;;;;;;;;;;10341516;28;20144;-68
2022/09/24 15:21:09;;;;;;;3.17;0.63;;;;;;;;;;10348798;28;20053;-68
2022/09/24 15:26:11;;;;;;;1.58;0.60;;;;;;;;;;10348421;28;20120;-68
2022/09/24 15:31:13;;;;;;;1.75;1.30;;;;;;;;;;10345875;28;20431;-68
2022/09/24 15:36:19;;;;;;;0.98;0.57;;;;;;;;;;10338570;28;20396;-69
2022/09/24 15:41:22;;;;;;;1.80;0.60;;;;;;;;;;10347036;28;20191;-68
2022/09/24 15:46:24;;;;;;;1.35;0.68;;;;;;;;;;10343243;28;20089;-68
2022/09/24 15:51:26;;;;;;;1.73;0.50;;;;;;;;;;10354226;28;20061;-68
2022/09/24 15:56:29;;;;;;;1.45;0.70;;;;;;;;;;10346897;28;20124;-67
2022/09/24 16:01:31;;;;;;;5.55;1.30;;;;;;;;;;10349068;28;20439;-69
2022/09/24 16:06:33;;;;;;;2.17;0.98;;;;;;;;;;10346225;28;20058;-68
2022/09/24 16:11:35;;;;;;;3.08;0.80;;;;;;;;;;10345153;28;20042;-68
2022/09/24 16:16:38;;;;;;;1.92;1.00;;;;;;;;;;10339415;28;20062;-68
2022/09/24 16:21:40;;;;;;;6.70;1.13;;;;;;;;;;10345588;28;20575;-69
2022/09/24 16:26:42;;;;;;;2.22;1.00;;;;;;;;;;10342196;28;20452;-68
2022/09/24 16:31:45;;;;;;;6.63;0.93;;;;;;;;;;10332434;28;20042;-68
2022/09/24 16:36:47;;;;;;;2.63;1.10;;;;;;;;;;10344815;28;20038;-69
2022/09/24 16:41:50;;;;;;;3.55;1.67;;;;;;;;;;10344293;28;20061;-68
2022/09/24 16:46:52;;;;;;;2.13;1.45;;;;;;;;;;10342461;28;20053;-68
2022/09/24 16:51:54;;;;;;;2.88;1.63;;;;;;;;;;10343801;28;20138;-69
2022/09/24 16:56:56;;;;;;;2.63;1.50;;;;;;;;;;10340894;28;20084;-69
2022/09/24 17:01:58;;;;;;;4.32;1.60;;;;;;;;;;10338966;28;20111;-68
2022/09/24 17:07:01;;;;;;;6.95;1.70;;;;;;;;;;10342743;28;20140;-72
2022/09/24 17:12:03;;;;;;;1.95;1.17;;;;;;;;;;10345960;28;20551;-69
2022/09/24 17:17:05;;;;;;;5.88;1.58;;;;;;;;;;10344269;28;20128;-63
2022/09/24 17:22:08;;;;;;;4.07;2.30;;;;;;;;;;10345362;28;20049;-61
2022/09/24 17:27:10;;;;;;;6.15;2.03;;;;;;;;;;10344499;28;20137;-64
2022/09/24 17:32:14;;;;;;;7.30;2.53;;;;;;;;;;10339993;28;20050;-62
2022/09/24 17:37:17;;;;;;;8.48;2.67;;;;;;;;;;10343553;28;20121;-62
2022/09/24 17:42:20;;;;;;;7.05;3.95;;;;;;;;;;10346535;28;20451;-62
2022/09/24 17:47:54;;;;;;;15.75;4.82;;;;;;;;;;10340571;28;20053;-63
2022/09/24 17:52:45;;;;;;;10.77;4.53;;;;;;;;;;10343934;28;20129;-61
2022/09/24 17:57:47;;;;;;;12.88;6.78;;;;;;;;;;10345849;28;20129;-64
2022/09/24 18:02:51;;;;;;;10.35;5.43;;;;;;;;;;10341458;28;20124;-61
2022/09/24 18:07:54;;;;;;;5.70;3.00;;;;;;;;;;10346612;28;20060;-64
2022/09/24 18:12:57;;;;;;;6.63;3.58;;;;;;;;;;10341349;28;20042;-62
2022/09/24 18:18:00;;;;;;;7.78;2.40;;;;;;;;;;10342230;28;20133;-61
2022/09/24 18:23:02;;;;;;;8.43;1.88;;;;;;;;;;10343001;28;20161;-61
2022/09/24 18:28:04;;;;;;;6.88;2.17;;;;;;;;;;10355299;28;20101;-61
2022/09/24 18:33:06;;;;;;;5.05;2.05;;;;;;;;;;10344769;28;20053;-62
2022/09/24 18:38:08;;;;;;;9.90;2.20;;;;;;;;;;10343006;28;20132;-61
2022/09/24 18:43:10;;;;;;;4.75;2.15;;;;;;;;;;10339115;28;20103;-64
2022/09/24 18:48:12;;;;;;;4.55;2.80;;;;;;;;;;10341324;28;20137;-62
2022/09/24 18:53:14;;;;;;;5.22;2.70;;;;;;;;;;10339610;28;20060;-62
2022/09/24 18:58:16;;;;;;;6.03;2.58;;;;;;;;;;10336432;28;20552;-61
2022/09/24 19:03:18;;;;;;;2.70;2.13;;;;;;;;;;10328579;28;20060;-61
2022/09/24 19:08:21;;;;;;;6.40;2.30;;;;;;;;;;10339301;28;20124;-62
2022/09/24 19:13:25;;;;;;;3.97;2.28;;;;;;;;;;10340289;28;20072;-62
2022/09/24 19:18:28;;;;;;;5.63;1.98;;;;;;;;;;10341786;28;20132;-61
2022/09/24 19:23:30;;;;;;;4.85;2.00;;;;;;;;;;10336401;28;20100;-63
2022/09/24 19:28:32;;;;;;;9.32;2.78;;;;;;;;;;10338302;28;20429;-63
2022/09/24 19:33:36;;;;;;;5.93;2.80;;;;;;;;;;10332172;28;20081;-62
2022/09/24 19:38:39;;;;;;;4.50;2.45;;;;;;;;;;10339166;28;20050;-64
2022/09/24 19:43:43;;;;;;;3.92;2.78;;;;;;;;;;10338588;28;20411;-64
2022/09/24 19:48:47;;;;;;;5.75;3.40;;;;;;;;;;10337550;28;20403;-66
2022/09/24 19:53:50;;;;;;;9.18;4.43;;;;;;;;;;10338825;28;20065;-63
2022/09/24 19:58:54;;;;;;;13.68;4.78;;;;;;;;;;10331798;28;20140;-65
2022/09/24 20:03:56;;;;;;;6.47;4.10;;;;;;;;;;10345889;28;20463;-62
2022/09/24 20:08:58;;;;;;;9.55;3.95;;;;;;;;;;10347335;28;20528;-64
2022/09/24 20:14:01;;;;;;;6.50;3.97;;;;;;;;;;10348408;28;20140;-64
2022/09/24 20:19:03;;;;;;;6.82;3.67;;;;;;;;;;10347079;28;20050;-64
2022/09/24 20:24:07;;;;;;;10.63;3.70;;;;;;;;;;10340743;28;20132;-63
2022/09/24 20:29:10;;;;;;;4.85;2.70;;;;;;;;;;10344964;28;20077;-63
2022/09/24 20:34:13;;;;;;;3.25;2.78;;;;;;;;;;10343668;28;20050;-63
2022/09/24 20:39:15;;;;;;;4.95;3.35;;;;;;;;;;10340820;28;20061;-63
2022/09/24 20:44:17;;;;;;;3.50;2.33;;;;;;;;;;10345163;28;20053;-65
2022/09/24 20:49:21;;;;;;;7.82;2.90;;;;;;;;;;10344040;28;20140;-63
2022/09/24 20:54:24;;;;;;;8.60;3.30;;;;;;;;;;10340082;28;20072;-63
2022/09/24 20:59:26;;;;;;;5.28;3.15;;;;;;;;;;10345481;28;20141;-64
2022/09/24 21:04:29;;;;;;;6.07;3.25;;;;;;;;;;10346128;28;20089;-63
2022/09/24 21:09:31;;;;;;;6.45;3.25;;;;;;;;;;10340341;28;20428;-67
2022/09/24 21:14:34;;;;;;;6.97;3.80;;;;;;;;;;10340270;28;20058;-64
2022/09/24 21:19:36;;;;;;;8.15;4.32;;;;;;;;;;10339774;28;20050;-63
2022/09/24 21:24:39;;;;;;;8.07;4.43;;;;;;;;;;10339048;28;20060;-63
2022/09/24 21:29:42;;;;;;;7.28;4.22;;;;;;;;;;10329032;28;20125;-62
2022/09/24 21:34:44;;;;;;;12.93;5.00;;;;;;;;;;10333671;28;20074;-62
2022/09/24 21:39:46;;;;;;;14.88;6.80;;;;;;;;;;10332824;28;20056;-63
2022/09/24 21:44:49;;;;;;;6.88;4.82;;;;;;;;;;10321973;28;20073;-64
2022/09/24 21:49:52;;;;;;;8.30;4.43;;;;;;;;;;10332074;28;20076;-65
2022/09/24 21:54:54;;;;;;;8.60;4.47;;;;;;;;;;10335875;28;20515;-63
2022/09/24 22:00:00;;;;;;;7.68;4.35;;;;;;;;;;10335541;28;20137;-65
2022/09/24 22:05:02;;;;;;;9.13;5.18;;;;;;;;;;10339259;28;20141;-63
2022/09/24 22:10:04;;;;;;;10.60;5.55;;;;;;;;;;10328456;28;20108;-62
2022/09/24 22:15:09;;;;;;;11.65;5.82;;;;;;;;;;10338155;28;20141;-65
2022/09/24 22:20:12;;;;;;;10.00;6.28;;;;;;;;;;10332912;28;20049;-62
2022/09/24 22:25:14;;;;;;;11.45;6.68;;;;;;;;;;10335051;28;20675;-63
2022/09/24 22:30:16;;;;;;;14.20;6.90;;;;;;;;;;10337529;28;20147;-63
2022/09/24 22:40:44;;;;;;;17.48;7.47;;;;;;;;;;10334517;28;20156;-63
2022/09/24 22:45:46;;;;;;;12.27;6.47;;;;;;;;;;10336537;28;20159;-61
2022/09/24 22:50:48;;;;;;;10.07;5.93;;;;;;;;;;10333115;28;20171;-62
2022/09/24 22:55:51;;;;;;;10.38;5.45;;;;;;;;;;10339658;28;20046;-63
2022/09/24 23:00:54;;;;;;;10.35;6.38;;;;;;;;;;10341654;28;20127;-63
2022/09/24 23:05:58;;;;;;;13.35;6.65;;;;;;;;;;10329650;28;20062;-65
2022/09/24 23:11:19;;;;;;;12.80;7.20;;;;;;;;;;10342617;28;20053;-63
2022/09/24 23:16:26;;;;;;;12.68;6.68;;;;;;;;;;10336540;28;20049;-64
2022/09/24 23:21:30;;;;;;;14.48;7.53;;;;;;;;;;10334702;28;20046;-63
2022/09/24 23:26:34;;;;;;;13.18;7.35;;;;;;;;;;10342336;28;20081;-62
2022/09/24 23:31:36;;;;;;;13.23;7.28;;;;;;;;;;10337548;28;20065;-63
2022/09/24 23:36:38;;;;;;;17.13;7.50;;;;;;;;;;10346239;28;20053;-64
2022/09/24 23:41:40;;;;;;;12.55;7.65;;;;;;;;;;10345847;28;20438;-66
2022/09/24 23:46:43;;;;;;;14.10;7.05;;;;;;;;;;10349338;28;20088;-64
2022/09/24 23:51:45;;;;;;;14.50;8.23;;;;;;;;;;10349348;28;20046;-64
2022/09/24 23:56:47;;;;;;;16.08;8.05;;;;;;;;;;10348437;28;20128;-63
